Aviation Digital Data Service (ADDS)

Output produced by METARs form (1501 UTC 11 February 2016)
found at http://aviationweather.gov/adds/metars/
 
KEWR 111437Z 1115/1218 29022G31KT P6SM BKN050 
     FM120200 30016G28KT P6SM FEW040 
     FM120800 29009KT P6SM BKN250 
     FM121500 26007KT P6SM BKN250